createdAt,value
2018-12-28T00:00:37.964Z,100985.45
2018-12-28T00:07:42.959Z,100915.88
2018-12-28T00:11:05.412Z,101009.44
2018-12-28T00:14:22.019Z,101014.19
2018-12-28T00:17:44.400Z,100995.40
2018-12-28T00:21:00.697Z,101005.69
2018-12-28T00:24:23.759Z,101019.74
2018-12-28T00:27:38.953Z,101017.02
2018-12-28T00:31:01.690Z,101023.45
2018-12-28T00:34:17.720Z,101029.26
2018-12-28T00:37:40.425Z,100982.19
2018-12-28T00:40:56.075Z,101025.12
2018-12-28T00:44:18.455Z,101025.73
2018-12-28T00:47:34.087Z,101029.77
2018-12-28T00:50:50.588Z,101025.62
2018-12-28T00:54:06.237Z,101022.80
2018-12-28T00:57:21.574Z,101027.73
2018-12-28T01:00:43.976Z,101037.48
2018-12-28T01:03:59.211Z,101037.97
2018-12-28T01:07:22.411Z,101014.22
2018-12-28T01:10:37.873Z,101042.92
2018-12-28T01:14:00.292Z,101052.62
2018-12-28T01:17:16.175Z,101049.53
2018-12-28T01:20:38.841Z,101055.85
2018-12-28T01:23:54.283Z,101053.61
2018-12-28T01:27:16.781Z,101055.92
2018-12-28T01:30:32.982Z,101050.93
2018-12-28T01:33:55.659Z,101040.95
2018-12-28T01:37:11.373Z,101047.20
2018-12-28T01:40:33.788Z,101029.58
2018-12-28T01:43:49.182Z,101054.30
2018-12-28T01:47:11.565Z,101056.98
2018-12-28T01:50:27.410Z,101056.92
2018-12-28T01:53:49.808Z,101050.70
2018-12-28T01:57:05.344Z,101059.59
2018-12-28T02:00:27.748Z,101061.66
2018-12-28T02:03:43.163Z,101059.66
2018-12-28T02:06:58.509Z,101060.95
2018-12-28T02:10:14.220Z,101062.33
2018-12-28T02:13:30.400Z,101058.93
2018-12-28T02:16:45.910Z,101070.38
2018-12-28T02:20:08.317Z,101059.70
2018-12-28T02:23:24.125Z,101063.97
2018-12-28T02:26:39.527Z,101069.14
2018-12-28T02:30:02.383Z,101076.73
2018-12-28T02:33:20.560Z,101081.24
2018-12-28T02:36:36.540Z,101072.87
2018-12-28T02:39:58.953Z,101073.58
2018-12-28T02:43:14.772Z,101070.50
2018-12-28T02:46:37.604Z,101065.02
2018-12-28T02:49:53.384Z,101061.16
2018-12-28T02:53:16.146Z,101067.16
2018-12-28T02:56:31.175Z,101063.45
2018-12-28T02:59:53.929Z,101065.58
2018-12-28T03:03:09.434Z,101063.86
2018-12-28T03:06:32.157Z,101051.23
2018-12-28T03:09:47.694Z,101064.34
2018-12-28T03:13:10.403Z,101057.58
2018-12-28T03:16:26.162Z,101059.89
2018-12-28T03:19:48.588Z,101066.47
2018-12-28T03:23:04.143Z,100999.69
2018-12-28T03:26:26.806Z,101067.77
2018-12-28T03:29:42.331Z,101066.52
2018-12-28T03:33:04.823Z,101072.33
2018-12-28T03:36:20.659Z,101078.34
2018-12-28T03:39:43.422Z,101079.98
2018-12-28T03:42:59.829Z,101075.83
2018-12-28T03:46:15.611Z,101076.27
2018-12-28T03:49:30.955Z,101073.83
2018-12-28T03:52:53.418Z,101075.77
2018-12-28T03:56:09.094Z,101077.27
2018-12-28T03:59:31.484Z,101014.11
2018-12-28T04:02:46.737Z,101087.98
2018-12-28T04:06:09.503Z,101082.05
2018-12-28T04:09:25.960Z,101097.36
2018-12-28T04:12:48.763Z,101099.39
2018-12-28T04:16:03.763Z,101101.64
2018-12-28T04:19:26.475Z,101015.73
2018-12-28T04:22:42.695Z,101100.47
2018-12-28T04:26:05.675Z,101098.53
2018-12-28T04:29:21.866Z,101091.53
2018-12-28T04:32:44.267Z,101100.69
2018-12-28T04:36:00.019Z,101093.09
2018-12-28T04:39:22.421Z,101108.45
2018-12-28T04:42:38.373Z,101102.55
2018-12-28T04:46:02.172Z,101103.69
2018-12-28T04:49:18.101Z,101104.78
2018-12-28T04:52:52.812Z,101109.91
2018-12-28T04:56:15.528Z,101113.88
2018-12-28T04:59:31.400Z,101113.48
2018-12-28T05:03:23.587Z,101115.08
2018-12-28T05:07:24.888Z,101116.48
2018-12-28T05:10:45.337Z,101114.91
2018-12-28T05:14:46.658Z,101118.69
2018-12-28T05:18:22.242Z,101069.50
2018-12-28T05:22:23.551Z,101127.94
2018-12-28T05:25:59.146Z,101123.12
2018-12-28T05:30:00.489Z,101126.59
2018-12-28T05:33:17.656Z,101125.89
2018-12-28T05:36:40.379Z,101134.19
2018-12-28T05:39:56.008Z,101133.34
2018-12-28T05:43:11.319Z,101140.12
2018-12-28T05:46:26.664Z,101140.36
2018-12-28T05:49:49.054Z,101149.88
2018-12-28T05:53:06.790Z,101154.33
2018-12-28T05:56:29.193Z,101158.24
2018-12-28T05:59:43.377Z,101154.66
2018-12-28T06:02:58.846Z,101173.19
2018-12-28T06:06:14.651Z,101179.15
2018-12-28T06:09:37.313Z,101176.81
2018-12-28T06:12:52.346Z,101184.15
2018-12-28T06:16:15.031Z,101178.52
2018-12-28T06:19:30.962Z,101185.87
2018-12-28T06:22:46.249Z,101176.66
2018-12-28T06:26:08.644Z,101180.56
2018-12-28T06:29:24.477Z,101191.97
2018-12-28T06:32:47.005Z,101191.80
2018-12-28T06:36:02.165Z,101203.53
2018-12-28T06:39:24.635Z,101165.73
2018-12-28T06:42:40.889Z,101097.11
2018-12-28T06:46:03.954Z,101211.86
2018-12-28T06:49:19.611Z,101215.83
2018-12-28T06:53:20.926Z,101218.67
2018-12-28T06:56:55.622Z,101225.88
2018-12-28T07:00:57.007Z,101225.93
2018-12-28T07:04:32.682Z,101215.66
2018-12-28T07:08:34.026Z,101232.45
2018-12-28T07:12:11.368Z,101237.06
2018-12-28T07:20:25.538Z,101242.25
2018-12-28T07:24:01.007Z,101239.95
2018-12-28T07:28:02.336Z,101216.31
2018-12-28T07:31:37.504Z,101240.86
2018-12-28T07:39:49.454Z,101237.31
2018-12-28T07:43:24.332Z,101244.20
2018-12-28T07:47:25.647Z,101248.78
2018-12-28T07:51:00.990Z,101243.47
2018-12-28T07:55:02.313Z,101225.50
2018-12-28T07:58:37.242Z,101244.48
2018-12-28T08:02:27.288Z,101248.11
2018-12-28T08:06:02.659Z,101250.91
2018-12-28T08:10:03.953Z,101259.41
2018-12-28T08:13:55.051Z,101261.22
2018-12-28T08:18:01.184Z,101264.51
2018-12-28T08:22:18.020Z,101267.86
2018-12-28T08:26:04.008Z,101277.93
2018-12-28T08:30:03.760Z,101279.11
2018-12-28T08:33:58.594Z,101278.32
2018-12-28T08:38:32.888Z,101281.23
2018-12-28T08:42:28.571Z,101288.14
2018-12-28T08:46:38.684Z,101285.08
2018-12-28T08:50:40.133Z,101283.81
2018-12-28T08:54:46.221Z,101288.48
2018-12-28T08:58:45.797Z,101288.48
2018-12-28T09:02:33.140Z,101294.66
2018-12-28T09:06:55.157Z,101291.59
2018-12-28T09:10:59.140Z,101295.38
2018-12-28T09:15:02.511Z,101301.70
2018-12-28T09:18:56.432Z,101297.84
2018-12-28T09:22:40.547Z,101294.09
2018-12-28T09:26:43.444Z,101288.34
2018-12-28T09:30:37.932Z,101294.66
2018-12-28T09:35:02.603Z,101299.34
2018-12-28T09:38:50.986Z,101297.11
2018-12-28T09:43:02.199Z,101298.47
2018-12-28T09:46:30.741Z,101308.62
2018-12-28T09:50:23.394Z,101304.59
2018-12-28T09:54:15.695Z,101298.48
2018-12-28T09:58:01.216Z,101308.97
2018-12-28T10:01:32.158Z,101313.21
2018-12-28T10:05:25.440Z,101312.67
2018-12-28T10:09:36.514Z,101313.92
2018-12-28T10:13:50.081Z,101315.37
2018-12-28T10:16:53.351Z,101310.55
2018-12-28T10:19:56.916Z,101311.91
2018-12-28T10:22:59.824Z,101311.52
2018-12-28T10:26:02.911Z,101317.27
2018-12-28T10:29:05.991Z,101318.50
2018-12-28T10:32:08.996Z,101318.30
2018-12-28T10:35:11.996Z,101311.77
2018-12-28T10:38:15.706Z,101309.25
2018-12-28T10:41:18.606Z,101307.23
2018-12-28T10:44:21.911Z,101316.03
2018-12-28T10:47:24.815Z,101315.06
2018-12-28T10:50:27.727Z,101314.86
2018-12-28T10:53:30.779Z,101305.26
2018-12-28T10:56:33.702Z,101313.98
2018-12-28T10:59:36.962Z,101313.98
2018-12-28T11:02:39.864Z,101312.31
2018-12-28T11:05:42.776Z,101308.34
2018-12-28T11:08:46.079Z,101308.67
2018-12-28T11:11:49.328Z,101304.06
2018-12-28T11:14:52.495Z,101300.47
2018-12-28T11:17:55.425Z,101297.70
2018-12-28T11:20:58.390Z,101296.61
2018-12-28T11:24:01.246Z,101303.21
2018-12-28T11:27:04.577Z,101307.23
2018-12-28T11:30:07.463Z,101303.95
2018-12-28T11:33:10.377Z,101310.32
2018-12-28T11:36:13.296Z,101314.41
2018-12-28T11:39:16.216Z,101312.33
2018-12-28T11:42:19.179Z,101312.98
2018-12-28T11:45:22.491Z,101315.06
2018-12-28T11:48:26.141Z,101309.22
2018-12-28T11:51:29.060Z,101313.30
2018-12-28T11:54:32.078Z,101311.05
2018-12-28T11:57:35.589Z,101306.61
2018-12-28T12:00:38.495Z,101302.25
2018-12-28T12:03:41.844Z,101304.55
2018-12-28T12:06:44.869Z,101304.45
2018-12-28T12:09:48.259Z,101308.06
2018-12-28T12:12:51.578Z,101305.09
2018-12-28T12:15:55.540Z,101295.78
2018-12-28T12:18:58.563Z,101305.61
2018-12-28T12:22:01.807Z,101308.40
2018-12-28T12:25:05.841Z,101306.67
2018-12-28T12:28:08.762Z,101307.33
2018-12-28T12:31:11.987Z,101310.22
2018-12-28T12:34:15.998Z,101307.83
2018-12-28T12:37:18.923Z,101312.22
2018-12-28T12:40:22.226Z,101310.92
2018-12-28T12:43:25.695Z,101308.08
2018-12-28T12:46:29.051Z,101303.78
2018-12-28T12:49:31.985Z,101316.56
2018-12-28T12:52:35.438Z,101319.64
2018-12-28T12:55:38.356Z,101313.84
2018-12-28T12:58:41.690Z,101317.44
2018-12-28T13:01:44.671Z,101326.25
2018-12-28T13:04:48.000Z,101331.12
2018-12-28T13:07:51.160Z,101321.69
2018-12-28T13:10:54.425Z,101321.12
2018-12-28T13:13:57.374Z,101316.36
2018-12-28T13:17:00.306Z,101316.03
2018-12-28T13:20:03.801Z,101313.22
2018-12-28T13:23:07.115Z,101314.72
2018-12-28T13:26:10.139Z,101315.89
2018-12-28T13:29:13.414Z,101319.98
2018-12-28T13:32:16.348Z,101318.45
2018-12-28T13:35:19.847Z,101314.10
2018-12-28T13:38:23.729Z,101318.20
2018-12-28T13:41:26.683Z,101310.34
2018-12-28T13:44:29.573Z,101316.25
2018-12-28T13:47:33.848Z,101315.78
2018-12-28T13:50:37.406Z,101324.11
2018-12-28T13:53:40.414Z,101320.23
2018-12-28T13:56:43.699Z,101328.34
2018-12-28T13:59:46.901Z,101324.17
2018-12-28T14:02:49.835Z,101322.58
2018-12-28T14:05:53.021Z,101321.06
2018-12-28T14:08:56.893Z,101332.84
2018-12-28T14:11:59.815Z,101330.28
2018-12-28T14:15:02.752Z,101328.08
2018-12-28T14:18:06.088Z,101329.86
2018-12-28T14:21:09.417Z,101333.69
2018-12-28T14:24:13.099Z,101331.59
2018-12-28T14:27:16.668Z,101329.55
2018-12-28T14:30:20.584Z,101333.64
2018-12-28T14:33:23.511Z,101329.86
2018-12-28T14:36:26.987Z,101334.63
2018-12-28T14:39:46.716Z,101339.23
2018-12-28T14:42:49.645Z,101341.60
2018-12-28T14:45:52.543Z,101342.12
2018-12-28T14:48:55.879Z,101346.56
2018-12-28T14:51:58.782Z,101342.48
2018-12-28T14:55:02.589Z,101351.75
2018-12-28T14:58:05.716Z,101351.97
2018-12-28T15:01:09.418Z,101360.72
2018-12-28T15:04:13.442Z,101367.09
2018-12-28T15:07:16.443Z,101369.14
2018-12-28T15:10:19.958Z,101369.88
2018-12-28T15:13:22.994Z,101375.06
2018-12-28T15:16:26.300Z,101377.98
2018-12-28T15:19:30.563Z,101375.32
2018-12-28T15:22:33.888Z,101372.38
2018-12-28T15:25:36.824Z,101376.47
2018-12-28T15:28:40.988Z,101383.91
2018-12-28T15:31:44.501Z,101378.52
2018-12-28T15:34:47.707Z,101381.70
2018-12-28T15:37:50.627Z,101386.99
2018-12-28T15:40:53.540Z,101393.02
2018-12-28T15:43:56.456Z,101397.95
2018-12-28T15:46:59.664Z,101400.93
2018-12-28T15:50:02.974Z,101403.66
2018-12-28T15:53:05.886Z,101403.08
2018-12-28T15:56:09.474Z,101409.27
2018-12-28T15:59:13.141Z,101420.37
2018-12-28T16:02:16.479Z,101412.45
2018-12-28T16:05:19.420Z,101420.61
2018-12-28T16:08:23.086Z,101413.59
2018-12-28T16:11:26.392Z,101418.12
2018-12-28T16:14:29.314Z,101423.60
2018-12-28T16:17:32.522Z,101427.41
2018-12-28T16:20:35.815Z,101427.45
2018-12-28T16:23:38.740Z,101436.13
2018-12-28T16:26:41.651Z,101434.88
2018-12-28T16:29:44.580Z,101433.31
2018-12-28T16:32:47.830Z,101442.79
2018-12-28T16:35:51.048Z,101445.78
2018-12-28T16:38:54.814Z,101448.17
2018-12-28T16:41:57.721Z,101450.45
2018-12-28T16:45:00.654Z,101466.11
2018-12-28T16:48:03.575Z,101468.21
2018-12-28T16:51:07.619Z,101474.58
2018-12-28T16:54:10.549Z,101481.25
2018-12-28T16:57:13.459Z,101488.91
2018-12-28T17:00:17.183Z,101485.56
2018-12-28T17:03:40.023Z,101487.08
2018-12-28T17:06:55.283Z,101491.95
2018-12-28T17:10:17.692Z,101490.28
2018-12-28T17:13:33.105Z,101489.75
2018-12-28T17:16:55.502Z,101489.86
2018-12-28T17:19:58.504Z,101490.73
2018-12-28T17:23:23.453Z,101497.38
2018-12-28T17:26:26.753Z,101504.48
2018-12-28T17:29:49.509Z,101503.10
2018-12-28T17:33:04.759Z,101506.59
2018-12-28T17:36:19.873Z,101517.92
2018-12-28T17:39:42.245Z,101520.06
2018-12-28T17:42:57.301Z,101431.47
2018-12-28T17:46:19.834Z,101522.98
2018-12-28T17:49:34.882Z,101498.95
2018-12-28T17:52:50.150Z,101522.81
2018-12-28T17:56:12.576Z,101526.92
2018-12-28T17:59:28.140Z,101526.57
2018-12-28T18:02:50.883Z,101528.47
2018-12-28T18:06:06.803Z,101535.96
2018-12-28T18:09:29.284Z,101534.59
2018-12-28T18:12:45.375Z,101539.48
2018-12-28T18:16:10.651Z,101542.05
2018-12-28T18:19:45.771Z,101547.34
2018-12-28T18:23:08.611Z,101558.95
2018-12-28T18:26:24.794Z,101550.68
2018-12-28T18:29:47.553Z,101550.91
2018-12-28T18:33:03.450Z,101504.48
2018-12-28T18:36:26.041Z,101541.52
2018-12-28T18:39:41.991Z,101555.25
2018-12-28T18:42:57.395Z,101548.52
2018-12-28T18:46:19.748Z,101522.34
2018-12-28T18:49:35.399Z,101534.40
2018-12-28T18:52:59.072Z,101534.48
2018-12-28T18:56:04.621Z,101534.69
2018-12-28T18:59:27.054Z,101526.38
2018-12-28T19:02:42.578Z,101519.95
2018-12-28T19:06:05.004Z,101433.54
2018-12-28T19:09:21.228Z,101534.59
2018-12-28T19:12:43.747Z,101516.64
2018-12-28T19:15:59.802Z,101539.64
2018-12-28T19:19:15.911Z,101527.41
2018-12-28T19:22:31.145Z,101546.23
2018-12-28T19:25:46.623Z,101544.05
2018-12-28T19:29:09.055Z,101541.55
2018-12-28T19:32:30.329Z,101535.30
2018-12-28T19:35:53.870Z,101533.80
2018-12-28T19:39:09.135Z,101529.94
2018-12-28T19:42:31.549Z,101537.55
2018-12-28T19:45:47.433Z,101534.34
2018-12-28T19:49:09.826Z,101536.06
2018-12-28T19:52:25.073Z,101534.65
2018-12-28T19:55:47.485Z,101531.42
2018-12-28T19:59:03.005Z,101532.48
2018-12-28T20:02:25.779Z,101527.45
2018-12-28T20:05:41.766Z,101536.26
2018-12-28T20:09:05.818Z,101477.13
2018-12-28T20:12:23.378Z,101541.39
2018-12-28T20:15:46.894Z,101536.37
2018-12-28T20:19:02.173Z,101535.66
2018-12-28T20:22:17.737Z,101528.39
2018-12-28T20:25:40.137Z,101544.86
2018-12-28T20:28:55.208Z,101475.40
2018-12-28T20:32:17.741Z,101544.41
2018-12-28T20:35:33.685Z,101534.14
2018-12-28T20:38:56.741Z,101534.52
2018-12-28T20:42:13.767Z,101546.91
2018-12-28T20:45:37.323Z,101548.13
2018-12-28T20:48:52.779Z,101549.34
2018-12-28T20:52:15.187Z,101535.55
2018-12-28T20:55:30.622Z,101563.50
2018-12-28T20:58:53.363Z,101478.50
2018-12-28T21:02:09.613Z,101560.53
2018-12-28T21:05:32.318Z,101537.64
2018-12-28T21:08:48.078Z,101560.11
2018-12-28T21:12:10.485Z,101555.27
2018-12-28T21:15:26.800Z,101558.46
2018-12-28T21:18:49.799Z,101531.13
2018-12-28T21:22:05.465Z,101563.79
2018-12-28T21:25:27.857Z,101561.95
2018-12-28T21:28:43.839Z,101569.06
2018-12-28T21:32:06.215Z,101570.79
2018-12-28T21:35:21.929Z,101566.73
2018-12-28T21:38:44.325Z,101496.28
2018-12-28T21:42:00.033Z,101575.86
2018-12-28T21:45:22.632Z,101573.81
2018-12-28T21:48:38.495Z,101571.95
2018-12-28T21:52:01.011Z,101581.01
2018-12-28T21:55:16.830Z,101587.73
2018-12-28T21:58:39.955Z,101494.68
2018-12-28T22:01:56.008Z,101598.02
2018-12-28T22:05:18.835Z,101595.20
2018-12-28T22:08:34.554Z,101614.71
2018-12-28T22:11:56.972Z,101615.08
2018-12-28T22:15:12.077Z,101619.11
2018-12-28T22:18:34.809Z,101615.42
2018-12-28T22:21:50.763Z,101607.86
2018-12-28T22:25:13.146Z,101608.00
2018-12-28T22:28:28.766Z,101605.67
2018-12-28T22:31:51.259Z,101599.00
2018-12-28T22:35:06.523Z,101602.62
2018-12-28T22:38:29.017Z,101603.27
2018-12-28T22:41:45.288Z,101599.34
2018-12-28T22:45:07.989Z,101609.30
2018-12-28T22:48:23.153Z,101601.86
2018-12-28T22:51:45.607Z,101600.06
2018-12-28T22:55:01.131Z,101593.98
2018-12-28T22:58:24.247Z,101574.63
2018-12-28T23:01:39.950Z,101596.98
2018-12-28T23:05:02.645Z,101595.18
2018-12-28T23:08:20.124Z,101585.72
2018-12-28T23:11:42.533Z,101577.39
2018-12-28T23:14:57.636Z,101590.61
2018-12-28T23:18:20.039Z,101584.48
2018-12-28T23:21:35.854Z,101532.03
2018-12-28T23:24:58.277Z,101571.91
2018-12-28T23:28:13.540Z,101576.73
2018-12-28T23:31:35.921Z,101575.48
2018-12-28T23:34:51.526Z,101498.66
2018-12-28T23:38:13.893Z,101574.72
2018-12-28T23:41:29.238Z,101572.50
2018-12-28T23:44:51.670Z,101572.08
2018-12-28T23:48:07.545Z,101565.55
2018-12-28T23:51:22.669Z,101572.27
2018-12-28T23:54:45.060Z,101575.06
2018-12-28T23:58:00.693Z,101563.82
